Time;durP1;ratioP1;P1;durP2;ratioP2;P2;SDS_P1;SDS_P2;PMS_P1;PMS_P2;Temp;Humidity;BMP_temperature;BMP_pressure;BME280_temperature;BME280_humidity;BME280_pressure;Samples;Min_cycle;Max_cycle;Signal;HPM_P1;HPM_P2
2022/04/15 00:01:05;;;;;;;1.08;0.30;;;;;;;8.89;65.00;100832.66;4970800;28;20067;-71
2022/04/15 00:03:34;;;;;;;0.30;0.10;;;;;;;8.73;66.98;100836.38;4982748;28;20050;-71
2022/04/15 00:06:09;;;;;;;1.95;0.20;;;;;;;8.54;68.26;100842.53;4991606;28;20680;-68
2022/04/15 00:08:37;;;;;;;0.17;0.10;;;;;;;8.55;70.06;100841.69;4990540;28;20038;-68
2022/04/15 00:11:06;;;;;;;0.17;0.10;;;;;;;8.60;68.95;100839.28;4985958;28;20118;-68
2022/04/15 00:13:35;;;;;;;0.28;0.15;;;;;;;8.70;68.28;100840.53;4971238;28;20050;-69
2022/04/15 00:16:07;;;;;;;0.13;0.10;;;;;;;8.81;69.45;100839.22;4970794;28;20050;-72
2022/04/15 00:18:36;;;;;;;0.77;0.10;;;;;;;8.74;65.94;100834.66;4971374;28;20074;-72
2022/04/15 00:21:05;;;;;;;0.98;0.10;;;;;;;8.74;68.47;100837.25;4970692;28;20062;-72
2022/04/15 00:23:34;;;;;;;0.10;0.10;;;;;;;8.79;68.67;100840.88;4971118;28;20059;-70
2022/04/15 00:26:03;;;;;;;0.90;0.10;;;;;;;8.75;69.31;100844.16;4970952;28;20142;-69
2022/04/15 00:28:31;;;;;;;0.10;0.10;;;;;;;8.75;69.86;100842.47;4970956;28;20105;-70
2022/04/15 00:31:00;;;;;;;0.20;0.10;;;;;;;8.76;70.69;100830.44;4969896;28;20795;-70
2022/04/15 00:33:30;;;;;;;0.10;0.10;;;;;;;8.79;71.16;100840.88;4962329;28;20053;-73
2022/04/15 00:35:58;;;;;;;0.13;0.10;;;;;;;8.77;73.24;100845.09;4970405;28;20055;-75
2022/04/15 00:38:27;;;;;;;0.68;0.40;;;;;;;8.75;71.13;100846.72;4970608;28;20085;-74
2022/04/15 00:40:55;;;;;;;1.13;0.68;;;;;;;8.74;72.52;100850.13;4970870;28;20113;-73
2022/04/15 00:43:24;;;;;;;2.22;1.23;;;;;;;8.69;71.91;100838.78;4973617;28;20113;-75
2022/04/15 00:45:52;;;;;;;1.65;1.08;;;;;;;8.60;70.91;100839.28;4971208;28;20132;-75
2022/04/15 00:48:24;;;;;;;1.77;0.75;;;;;;;8.57;71.92;100834.91;4970329;28;20058;-74
2022/04/15 00:50:54;;;;;;;1.50;0.77;;;;;;;8.64;72.02;100828.28;4970815;28;20107;-73
2022/04/15 00:53:24;;;;;;;0.85;0.55;;;;;;;8.64;71.98;100827.41;4969797;28;20117;-73
2022/04/15 00:55:55;;;;;;;1.90;0.88;;;;;;;8.59;70.65;100825.53;4968807;28;20115;-72
2022/04/15 00:58:26;;;;;;;0.93;0.60;;;;;;;8.57;70.82;100824.59;4970405;28;20718;-71
2022/04/15 01:00:58;;;;;;;1.02;0.70;;;;;;;8.68;72.93;100831.84;4969746;28;20122;-72
2022/04/15 01:03:26;;;;;;;0.40;0.40;;;;;;;8.60;71.12;100828.97;4962222;28;20125;-73
2022/04/15 01:05:59;;;;;;;1.35;0.60;;;;;;;8.54;71.63;100816.75;4980899;28;20112;-72
2022/04/15 01:08:29;;;;;;;;;;;;;;;8.57;71.58;100828.88;4989939;28;20128;-70
2022/04/15 01:11:00;;;;;;;0.28;0.20;;;;;;;8.56;71.45;100827.09;4985818;28;19980;-70
2022/04/15 01:13:29;;;;;;;0.20;0.15;;;;;;;8.57;72.09;100824.59;4969197;28;20054;-69
2022/04/15 01:15:58;;;;;;;0.80;0.30;;;;;;;8.57;73.45;100826.28;4969981;28;20485;-70
2022/04/15 01:18:26;;;;;;;0.50;0.22;;;;;;;8.56;73.14;100827.97;4970185;28;20058;-69
2022/04/15 01:20:56;;;;;;;1.15;0.30;;;;;;;8.56;72.96;100838.28;4969851;28;20142;-70
2022/04/15 01:23:26;;;;;;;0.22;0.10;;;;;;;8.52;73.73;100841.59;4968133;28;20527;-69
2022/04/15 01:25:55;;;;;;;0.10;0.10;;;;;;;8.50;75.17;100843.22;4969454;28;20105;-69
2022/04/15 01:28:23;;;;;;;0.10;0.10;;;;;;;8.47;75.19;100847.38;4969502;28;20109;-72
2022/04/15 01:30:52;;;;;;;0.28;0.28;;;;;;;8.42;76.41;100849.75;4969559;28;20089;-72
2022/04/15 01:33:21;;;;;;;0.20;0.15;;;;;;;8.39;76.19;100844.47;4969683;28;20113;-74
2022/04/15 01:35:50;;;;;;;1.08;0.38;;;;;;;8.37;77.07;100864.16;4969621;28;20098;-72
2022/04/15 01:38:19;;;;;;;2.40;0.20;;;;;;;8.33;78.68;100867.41;4970039;28;20046;-71
2022/04/15 01:40:49;;;;;;;2.58;0.73;;;;;;;8.26;79.28;100870.56;4972388;28;20051;-71
2022/04/15 01:43:18;;;;;;;2.40;0.50;;;;;;;8.21;79.72;100875.53;4970352;28;20081;-72
2022/04/15 01:45:47;;;;;;;1.48;0.70;;;;;;;8.16;74.86;100875.34;4969765;28;20086;-73
2022/04/15 01:48:15;;;;;;;1.13;0.70;;;;;;;8.16;75.52;100872.75;4968760;28;20046;-74
2022/04/15 01:50:44;;;;;;;0.75;0.50;;;;;;;8.11;76.42;100873.41;4969519;28;20106;-72
2022/04/15 01:53:12;;;;;;;1.25;0.50;;;;;;;8.09;78.06;100873.34;4968618;28;20062;-70
2022/04/15 01:55:41;;;;;;;1.95;0.70;;;;;;;8.06;78.29;100868.03;4969611;28;20743;-72
2022/04/15 01:58:11;;;;;;;1.17;0.70;;;;;;;8.02;80.03;100873.91;4969214;28;20150;-72
2022/04/15 02:00:40;;;;;;;2.65;0.80;;;;;;;7.97;81.79;100862.50;4969420;28;20488;-72
2022/04/15 02:03:08;;;;;;;0.70;0.40;;;;;;;7.89;80.58;100863.91;4968549;28;20077;-71
2022/04/15 02:05:37;;;;;;;1.08;0.40;;;;;;;7.83;81.82;100866.19;4970563;28;20583;-69
2022/04/15 02:08:06;;;;;;;0.63;0.30;;;;;;;7.82;82.02;100861.88;4969160;28;20054;-69
2022/04/15 02:10:34;;;;;;;0.90;0.40;;;;;;;7.83;83.70;100871.34;4969276;28;20058;-69
2022/04/15 02:13:03;;;;;;;0.20;0.15;;;;;;;7.90;85.91;100868.22;4949599;28;20051;-70
2022/04/15 02:15:33;;;;;;;0.63;0.38;;;;;;;7.93;82.62;100864.09;4949507;29;20114;-70
2022/04/15 02:18:02;;;;;;;1.23;0.50;;;;;;;7.98;84.49;100867.72;4950044;29;20134;-69
2022/04/15 02:20:30;;;;;;;1.58;0.30;;;;;;;7.93;85.78;100873.50;4949721;29;20055;-70
2022/04/15 02:22:58;;;;;;;0.25;0.22;;;;;;;7.82;85.33;100875.63;4949296;29;20051;-69
2022/04/15 02:25:27;;;;;;;1.23;0.45;;;;;;;7.78;85.67;100883.16;4947184;29;20059;-69
2022/04/15 02:27:55;;;;;;;1.20;0.40;;;;;;;7.71;86.41;100882.88;4949250;29;20051;-69
2022/04/15 02:30:24;;;;;;;1.08;0.20;;;;;;;7.76;95.74;100891.72;4949070;29;20060;-69
2022/04/15 02:32:54;;;;;;;0.40;0.30;;;;;;;7.85;100.00;100890.34;4949591;29;20528;-70
2022/04/15 02:35:22;;;;;;;0.38;0.30;;;;;;;7.93;100.00;100888.97;4948112;29;20118;-69
2022/04/15 02:37:51;;;;;;;1.60;0.80;;;;;;;7.98;100.00;100890.03;4952341;29;20087;-68
2022/04/15 02:40:19;;;;;;;2.15;0.80;;;;;;;8.02;100.00;100894.50;4950172;28;20130;-69
2022/04/15 02:42:48;;;;;;;1.55;0.80;;;;;;;8.05;100.00;100897.22;4949444;29;20089;-69
2022/04/15 02:45:16;;;;;;;2.80;1.23;;;;;;;8.03;100.00;100898.84;4949400;29;20110;-69
2022/04/15 02:47:45;;;;;;;4.15;1.08;;;;;;;8.03;100.00;100904.00;4949584;29;20074;-69
2022/04/15 02:50:15;;;;;;;0.65;0.50;;;;;;;7.76;100.00;100896.88;4949389;29;20149;-70
2022/04/15 02:52:44;;;;;;;0.63;0.30;;;;;;;7.70;100.00;100917.19;4949085;29;20126;-69
2022/04/15 02:55:13;;;;;;;0.22;0.17;;;;;;;7.53;97.15;100915.56;4949053;29;20118;-69
2022/04/15 02:57:41;;;;;;;1.17;0.30;;;;;;;7.43;98.59;100926.28;4948700;28;20555;-69
2022/04/15 03:00:12;;;;;;;1.10;0.25;;;;;;;7.31;99.94;100927.50;4952023;29;20181;-69
2022/04/15 03:02:40;;;;;;;1.05;0.40;;;;;;;7.29;99.66;100928.25;4963927;28;20415;-69
2022/04/15 03:05:10;;;;;;;0.20;0.20;;;;;;;7.26;99.90;100934.13;4971875;28;20084;-69
2022/04/15 03:07:41;;;;;;;0.65;0.20;;;;;;;7.22;97.96;100932.22;4971058;28;20046;-69
2022/04/15 03:10:10;;;;;;;0.32;0.20;;;;;;;7.15;97.95;100925.03;4971703;28;20061;-70
2022/04/15 03:12:40;;;;;;;1.65;0.32;;;;;;;7.12;97.66;100928.34;4955213;28;20069;-68
2022/04/15 03:15:10;;;;;;;1.27;0.40;;;;;;;7.08;97.15;100933.28;4952693;29;20055;-69
2022/04/15 03:17:39;;;;;;;0.70;0.28;;;;;;;7.01;97.47;100936.34;4952916;29;20061;-70
2022/04/15 03:20:09;;;;;;;0.55;0.40;;;;;;;6.92;99.08;100941.97;4952485;29;20139;-69
2022/04/15 03:22:38;;;;;;;0.65;0.32;;;;;;;6.83;99.62;100952.72;4951992;29;20059;-70
2022/04/15 03:25:10;;;;;;;0.47;0.30;;;;;;;6.77;99.50;100952.41;4953333;29;20047;-69
2022/04/15 03:27:39;;;;;;;0.52;0.40;;;;;;;6.73;100.00;100958.19;4952942;29;20087;-70
2022/04/15 03:30:08;;;;;;;0.50;0.30;;;;;;;6.69;99.77;100964.03;4953279;29;20501;-70
2022/04/15 03:32:47;;;;;;;0.20;0.20;;;;;;;6.65;98.70;100962.09;4951838;29;20055;-69
2022/04/15 03:35:16;;;;;;;0.40;0.20;;;;;;;6.56;98.98;100967.69;4954614;29;20110;-74
2022/04/15 03:37:45;;;;;;;0.52;0.20;;;;;;;6.52;99.63;100981.19;4952997;29;20055;-74
2022/04/15 03:40:15;;;;;;;0.52;0.40;;;;;;;6.46;100.00;100979.22;4952508;28;20154;-73
2022/04/15 03:42:47;;;;;;;0.20;0.20;;;;;;;6.42;100.00;100984.13;4965476;28;20078;-73
2022/04/15 03:45:18;;;;;;;0.38;0.20;;;;;;;6.39;100.00;100987.41;4971937;28;20051;-72
2022/04/15 03:47:47;;;;;;;0.73;0.20;;;;;;;6.36;100.00;100994.97;4971629;28;20054;-73
2022/04/15 03:50:16;;;;;;;0.73;0.40;;;;;;;6.30;100.00;100999.81;4971388;28;20054;-73
2022/04/15 03:52:46;;;;;;;0.30;0.20;;;;;;;6.15;100.00;101007.59;4971404;28;20133;-72
2022/04/15 03:55:17;;;;;;;1.83;0.60;;;;;;;6.04;100.00;101016.44;4971497;28;20078;-74
2022/04/15 03:57:46;;;;;;;1.15;0.30;;;;;;;5.94;100.00;101014.19;4971209;28;20046;-73
2022/04/15 04:00:17;;;;;;;0.82;0.40;;;;;;;5.90;100.00;101018.25;4972100;28;20055;-72
2022/04/15 04:02:46;;;;;;;1.40;0.52;;;;;;;5.88;100.00;101012.16;4983610;28;20050;-72
2022/04/15 04:05:14;;;;;;;0.60;0.30;;;;;;;5.91;100.00;101019.13;4991014;28;20409;-72
2022/04/15 04:07:45;;;;;;;0.10;0.10;;;;;;;5.88;100.00;101020.72;4990455;28;20805;-71
2022/04/15 04:10:16;;;;;;;0.40;0.22;;;;;;;5.83;100.00;101021.31;4990836;28;20066;-72
2022/04/15 04:12:45;;;;;;;1.02;0.40;;;;;;;5.84;100.00;101028.19;4972096;28;20097;-72
2022/04/15 04:15:14;;;;;;;0.77;0.40;;;;;;;5.83;100.00;101024.75;4971013;28;20109;-72
2022/04/15 04:17:43;;;;;;;0.45;0.20;;;;;;;5.84;100.00;101023.06;4971399;28;20164;-73
2022/04/15 04:20:13;;;;;;;1.08;0.40;;;;;;;5.85;100.00;101029.97;4970974;28;20051;-72
2022/04/15 04:22:42;;;;;;;1.08;0.47;;;;;;;5.85;100.00;101027.41;4970904;28;20050;-72
2022/04/15 04:25:12;;;;;;;0.38;0.30;;;;;;;5.89;100.00;101029.34;4971511;28;20050;-73
2022/04/15 04:27:44;;;;;;;0.60;0.30;;;;;;;5.84;100.00;101023.06;4971169;28;20054;-76
2022/04/15 04:30:14;;;;;;;0.50;0.30;;;;;;;5.94;100.00;101040.78;4971035;28;20051;-72
2022/04/15 04:32:49;;;;;;;1.00;0.52;;;;;;;5.94;100.00;101038.19;4962644;28;20133;-72
2022/04/15 04:35:18;;;;;;;0.93;0.45;;;;;;;5.92;100.00;101044.91;4974315;28;20097;-71
2022/04/15 04:37:47;;;;;;;0.63;0.63;;;;;;;5.91;100.00;101039.69;4972139;28;20061;-72
2022/04/15 04:40:16;;;;;;;0.77;0.47;;;;;;;5.89;100.00;101037.06;4971309;28;20497;-71
2022/04/15 04:42:48;;;;;;;0.70;0.60;;;;;;;5.86;100.00;101042.91;4970488;28;20113;-72
2022/04/15 04:45:17;;;;;;;0.85;0.80;;;;;;;5.79;100.00;101039.91;4970783;28;20055;-72
2022/04/15 04:47:47;;;;;;;0.93;0.77;;;;;;;5.78;100.00;101045.88;4970580;28;20054;-69
2022/04/15 04:50:16;;;;;;;2.00;1.23;;;;;;;5.76;100.00;101048.34;4971407;28;20082;-71
2022/04/15 04:52:46;;;;;;;2.45;1.10;;;;;;;5.75;100.00;101053.38;4970442;28;20105;-71
2022/04/15 04:55:15;;;;;;;1.05;0.80;;;;;;;5.71;100.00;101061.75;4970364;28;20069;-72
2022/04/15 04:57:46;;;;;;;4.05;1.38;;;;;;;5.67;100.00;101061.56;4970442;28;20086;-72
2022/04/15 05:00:16;;;;;;;2.65;1.05;;;;;;;5.61;100.00;101061.25;4970164;28;20497;-72
2022/04/15 05:02:46;;;;;;;1.40;0.93;;;;;;;5.54;100.00;101071.09;4982453;28;20050;-72
2022/04/15 05:05:14;;;;;;;1.77;0.82;;;;;;;5.39;100.00;101074.59;4987332;28;20133;-71
2022/04/15 05:07:43;;;;;;;1.67;0.85;;;;;;;5.31;100.00;101077.50;4963227;28;20059;-73
2022/04/15 05:10:12;;;;;;;1.15;0.60;;;;;;;5.26;100.00;101077.25;4967738;28;20137;-70
2022/04/15 05:12:40;;;;;;;1.88;0.90;;;;;;;5.27;100.00;101078.13;4965543;28;20054;-70
2022/04/15 05:15:11;;;;;;;1.25;0.85;;;;;;;5.20;100.00;101074.34;4970474;28;20101;-71
2022/04/15 05:17:49;;;;;;;1.30;0.95;;;;;;;5.27;100.00;101085.84;4970342;28;20054;-73
2022/04/15 05:20:17;;;;;;;1.02;0.57;;;;;;;5.23;100.00;101088.25;4969876;28;20658;-71
2022/04/15 05:22:46;;;;;;;1.30;0.60;;;;;;;5.21;100.00;101094.97;4968338;28;20134;-72
2022/04/15 05:25:14;;;;;;;1.20;0.60;;;;;;;5.20;100.00;101097.44;4969743;28;20058;-73
2022/04/15 05:27:43;;;;;;;1.50;0.70;;;;;;;5.16;100.00;101088.69;4969790;28;20046;-72
2022/04/15 05:30:13;;;;;;;1.08;0.52;;;;;;;5.15;100.00;101098.84;4969572;28;20129;-71
2022/04/15 05:32:42;;;;;;;1.08;0.70;;;;;;;5.06;100.00;101106.03;4970642;28;20515;-73
2022/04/15 05:35:11;;;;;;;3.88;0.47;;;;;;;4.92;100.00;101088.16;4972827;28;20105;-72
2022/04/15 05:37:39;;;;;;;1.17;0.60;;;;;;;4.96;100.00;101105.50;4970608;28;20515;-72
2022/04/15 05:40:09;;;;;;;1.10;0.52;;;;;;;4.91;100.00;101100.91;4962791;28;20090;-72
2022/04/15 05:42:38;;;;;;;2.55;0.73;;;;;;;4.84;100.00;101102.25;4969075;28;20074;-72
2022/04/15 05:45:07;;;;;;;1.95;0.50;;;;;;;4.79;100.00;101103.66;4970466;28;20078;-73
2022/04/15 05:47:39;;;;;;;1.13;0.60;;;;;;;4.78;100.00;101107.88;4969885;28;20094;-72
2022/04/15 05:50:08;;;;;;;0.60;0.50;;;;;;;4.76;100.00;101104.34;4970232;28;20055;-71
2022/04/15 05:52:37;;;;;;;0.70;0.57;;;;;;;4.74;100.00;101112.75;4969627;28;20595;-71
2022/04/15 05:55:06;;;;;;;0.95;0.60;;;;;;;4.72;100.00;101116.88;4969386;28;20082;-71
2022/04/15 05:57:34;;;;;;;2.83;0.88;;;;;;;4.68;100.00;101115.84;4969239;28;20042;-72
2022/04/15 06:00:04;;;;;;;6.30;1.92;;;;;;;4.66;100.00;101114.88;4969580;28;20093;-71
2022/04/15 06:02:32;;;;;;;7.53;3.55;;;;;;;4.63;100.00;101117.25;4960666;28;20085;-72
2022/04/15 06:05:02;;;;;;;7.38;2.42;;;;;;;4.60;100.00;101119.63;4969631;28;20117;-71
2022/04/15 06:07:43;;;;;;;9.13;2.85;;;;;;;4.55;100.00;101121.91;4988966;28;20160;-70
2022/04/15 06:10:12;;;;;;;8.98;3.85;;;;;;;4.54;100.00;101121.84;4988724;28;20117;-70
2022/04/15 06:13:04;;;;;;;7.95;3.28;;;;;;;4.53;100.00;101126.06;4970603;28;20051;-70
2022/04/15 06:15:33;;;;;;;7.68;2.80;;;;;;;4.53;100.00;101125.19;4969295;28;20058;-70
2022/04/15 06:18:02;;;;;;;4.80;2.55;;;;;;;4.52;100.00;101128.53;4968710;28;20046;-69
2022/04/15 06:20:32;;;;;;;2.15;1.00;;;;;;;4.44;100.00;101130.63;4968968;28;20636;-69
2022/04/15 06:23:01;;;;;;;1.70;0.80;;;;;;;4.41;100.00;101133.91;4968902;28;20125;-69
2022/04/15 06:25:29;;;;;;;1.65;1.10;;;;;;;4.38;100.00;101126.03;4968904;28;20504;-69
2022/04/15 06:27:58;;;;;;;1.55;0.98;;;;;;;4.36;100.00;101132.75;4969012;28;20106;-69
2022/04/15 06:30:27;;;;;;;1.63;1.02;;;;;;;4.34;100.00;101131.75;4968869;28;20055;-69
2022/04/15 06:32:55;;;;;;;2.22;1.00;;;;;;;4.30;100.00;101137.47;4972381;28;20487;-68
2022/04/15 06:35:24;;;;;;;3.60;1.00;;;;;;;4.24;100.00;101126.88;4973784;28;20050;-68
2022/04/15 06:37:54;;;;;;;4.47;2.28;;;;;;;4.23;100.00;101135.34;4974011;28;20142;-68
2022/04/15 06:40:23;;;;;;;6.13;3.25;;;;;;;4.20;100.00;101136.03;4972894;28;20082;-68
2022/04/15 06:42:51;;;;;;;3.38;2.05;;;;;;;4.15;100.00;101132.31;4972649;28;20051;-68
2022/04/15 06:45:19;;;;;;;4.72;2.20;;;;;;;4.14;100.00;101134.78;4972812;28;20447;-68
2022/04/15 06:47:48;;;;;;;3.50;1.95;;;;;;;4.11;100.00;101134.59;4972411;28;20086;-68
2022/04/15 06:50:16;;;;;;;4.55;2.70;;;;;;;4.09;100.00;101141.31;4973031;28;20047;-68
2022/04/15 06:52:45;;;;;;;2.80;1.25;;;;;;;4.05;100.00;101139.34;4971896;28;20616;-68
2022/04/15 06:55:15;;;;;;;7.47;3.13;;;;;;;4.01;100.00;101148.53;4972529;28;20156;-68
2022/04/15 06:57:44;;;;;;;5.47;2.40;;;;;;;3.98;100.00;101153.44;4972572;28;20062;-69
2022/04/15 07:00:13;;;;;;;5.72;2.97;;;;;;;3.91;100.00;101149.59;4971423;28;20106;-69
2022/04/15 07:02:42;;;;;;;4.03;2.40;;;;;;;3.90;100.00;101155.53;4984568;28;20054;-68
2022/04/15 07:05:11;;;;;;;3.83;2.50;;;;;;;3.86;100.00;101156.13;4992502;28;20104;-68
2022/04/15 07:07:40;;;;;;;5.32;2.10;;;;;;;3.84;100.00;101155.13;4990494;28;20061;-69
2022/04/15 07:10:10;;;;;;;4.13;2.65;;;;;;;3.81;100.00;101148.94;4991697;28;20105;-69
2022/04/15 07:12:41;;;;;;;5.07;2.40;;;;;;;3.78;100.00;101152.22;4974228;28;20047;-68
2022/04/15 07:15:10;;;;;;;4.22;2.40;;;;;;;3.77;100.00;101152.97;4972926;28;20093;-68
2022/04/15 07:17:38;;;;;;;4.13;2.10;;;;;;;3.72;100.00;101151.81;4971743;28;20050;-68
2022/04/15 07:20:08;;;;;;;7.50;2.47;;;;;;;3.68;100.00;101152.41;4971710;28;20908;-68
2022/04/15 07:22:36;;;;;;;6.25;2.45;;;;;;;3.62;100.00;101158.03;4971166;28;20101;-68
2022/04/15 07:25:06;;;;;;;3.92;1.73;;;;;;;3.58;100.00;101158.63;4971759;28;20082;-69
2022/04/15 07:27:34;;;;;;;4.78;2.08;;;;;;;3.50;100.00;101152.97;4971855;28;20141;-69
2022/04/15 07:30:05;;;;;;;3.30;2.03;;;;;;;3.54;100.00;101160.06;4972053;28;20500;-69
2022/04/15 07:32:33;;;;;;;2.25;1.58;;;;;;;3.52;100.00;101165.88;4964528;28;20047;-68
2022/04/15 07:35:02;;;;;;;2.30;1.58;;;;;;;3.48;100.00;101164.81;4974330;28;20468;-69
2022/04/15 07:37:30;;;;;;;2.35;1.48;;;;;;;3.48;100.00;101169.03;4972565;28;20055;-68
2022/04/15 07:39:59;;;;;;;2.15;1.45;;;;;;;3.45;100.00;101169.72;4963975;28;20109;-69
2022/04/15 07:42:27;;;;;;;1.88;1.30;;;;;;;3.41;100.00;101162.63;4971142;28;20105;-69
2022/04/15 07:44:56;;;;;;;4.93;1.45;;;;;;;3.35;100.00;101165.69;4970997;28;20050;-68
2022/04/15 07:47:33;;;;;;;3.72;1.70;;;;;;;3.31;100.00;101170.50;4971583;28;20143;-68
2022/04/15 07:50:01;;;;;;;4.03;1.30;;;;;;;3.33;100.00;101166.38;4971838;28;20128;-68
2022/04/15 07:52:32;;;;;;;2.42;1.10;;;;;;;3.29;100.00;101172.06;4971658;28;20051;-68
2022/04/15 07:55:00;;;;;;;2.35;1.40;;;;;;;3.30;100.00;101173.88;4971710;28;20054;-68
2022/04/15 07:57:30;;;;;;;3.45;1.40;;;;;;;3.27;100.00;101177.06;4971241;28;20138;-68
2022/04/15 08:00:00;;;;;;;5.10;1.63;;;;;;;3.21;100.00;101163.00;4971768;28;20061;-68
2022/04/15 08:02:28;;;;;;;2.63;1.30;;;;;;;3.25;100.00;101180.31;4966109;28;20424;-69
2022/04/15 08:04:58;;;;;;;2.88;1.08;;;;;;;3.22;100.00;101180.13;4991169;28;20089;-69
2022/04/15 08:07:27;;;;;;;5.03;1.10;;;;;;;3.19;100.00;101182.50;4992361;28;20062;-68
2022/04/15 08:09:58;;;;;;;2.25;1.25;;;;;;;3.14;100.00;101177.97;4990888;28;20053;-68
2022/04/15 08:12:26;;;;;;;3.25;1.42;;;;;;;3.08;100.00;101174.13;4974731;28;20133;-68
2022/04/15 08:14:55;;;;;;;3.20;1.70;;;;;;;3.13;100.00;101188.97;4971442;28;20082;-69
2022/04/15 08:17:24;;;;;;;1.92;1.17;;;;;;;3.10;100.00;101196.44;4970836;28;20126;-69
2022/04/15 08:19:52;;;;;;;2.08;1.33;;;;;;;3.07;100.00;101200.44;4971625;28;20137;-69
2022/04/15 08:22:22;;;;;;;4.25;1.35;;;;;;;3.02;100.00;101201.81;4971164;28;20058;-69
2022/04/15 08:24:51;;;;;;;1.80;1.48;;;;;;;3.03;100.00;101193.38;4971809;28;20038;-68
2022/04/15 08:27:19;;;;;;;2.70;1.27;;;;;;;3.01;100.00;101200.94;4970821;28;20493;-68
2022/04/15 08:29:49;;;;;;;1.95;1.08;;;;;;;3.00;100.00;101199.19;4970997;28;20126;-68
2022/04/15 08:32:18;;;;;;;2.83;1.55;;;;;;;2.98;100.00;101200.75;4970640;28;20508;-68
2022/04/15 08:34:46;;;;;;;2.33;1.17;;;;;;;2.96;100.00;101197.19;4974172;28;20089;-68
2022/04/15 08:37:15;;;;;;;1.60;0.77;;;;;;;2.92;100.00;101200.31;4972001;28;20093;-68
2022/04/15 08:39:45;;;;;;;2.88;1.10;;;;;;;2.87;100.00;101199.13;4971514;28;20456;-68
2022/04/15 08:42:13;;;;;;;2.45;1.23;;;;;;;2.84;100.00;101198.91;4970381;28;20105;-69
2022/04/15 08:44:43;;;;;;;3.58;1.45;;;;;;;2.83;100.00;101199.69;4970742;28;20118;-69
2022/04/15 08:47:12;;;;;;;3.38;1.60;;;;;;;2.81;100.00;101207.25;4970232;28;20077;-69
2022/04/15 08:49:41;;;;;;;2.80;1.15;;;;;;;2.77;100.00;101209.50;4969899;28;20046;-68
2022/04/15 08:52:11;;;;;;;3.58;1.35;;;;;;;2.77;100.00;101219.72;4970236;28;20114;-69
2022/04/15 08:54:40;;;;;;;1.52;0.93;;;;;;;2.71;100.00;101212.53;4970745;28;20047;-69
2022/04/15 08:57:10;;;;;;;3.67;1.25;;;;;;;2.66;100.00;101211.34;4970079;28;20058;-68
2022/04/15 08:59:40;;;;;;;2.60;1.25;;;;;;;2.66;100.00;101214.78;4970243;28;20074;-69
2022/04/15 09:02:09;;;;;;;2.58;1.25;;;;;;;2.62;100.00;101215.34;4977676;28;20138;-69
2022/04/15 09:04:37;;;;;;;2.03;1.30;;;;;;;2.62;100.00;101210.25;4989641;28;20046;-69
2022/04/15 09:07:06;;;;;;;3.95;1.77;;;;;;;2.61;100.00;101213.59;4989931;28;20086;-69
2022/04/15 09:09:35;;;;;;;2.35;1.77;;;;;;;2.60;100.00;101216.03;4989504;28;20101;-69
2022/04/15 09:12:05;;;;;;;2.75;1.80;;;;;;;2.57;100.00;101213.28;4976612;28;20552;-68
2022/04/15 09:14:35;;;;;;;2.88;1.67;;;;;;;2.51;100.00;101216.28;4962572;28;20468;-69
2022/04/15 09:17:05;;;;;;;3.00;1.50;;;;;;;2.47;100.00;101214.28;4970482;28;20113;-69
2022/04/15 09:19:35;;;;;;;3.60;1.88;;;;;;;2.42;100.00;101213.97;4969642;28;20051;-69
2022/04/15 09:22:04;;;;;;;2.35;1.45;;;;;;;2.38;100.00;101218.75;4969829;28;20050;-69
2022/04/15 09:24:34;;;;;;;2.70;1.70;;;;;;;2.35;100.00;101219.44;4962361;28;20043;-69
2022/04/15 09:27:05;;;;;;;3.45;1.50;;;;;;;2.35;100.00;101226.22;4970154;28;20051;-69
2022/04/15 09:29:36;;;;;;;11.90;1.20;;;;;;;2.26;100.00;101224.78;4970084;28;20101;-68
2022/04/15 09:32:09;;;;;;;2.40;0.90;;;;;;;2.17;100.00;101225.81;4968824;28;20066;-68
2022/04/15 09:34:53;;;;;;;;;;;;;;;2.13;100.00;101222.16;4970406;28;20082;-69
2022/04/15 09:37:22;;;;;;;1.00;0.70;;;;;;;2.17;100.00;101229.22;4972462;28;19945;-69
2022/04/15 09:40:08;;;;;;;1.75;1.27;;;;;;;2.18;100.00;101230.16;4970661;28;20059;-69
2022/04/15 09:42:37;;;;;;;4.05;1.73;;;;;;;2.21;100.00;101236.34;4969333;28;20138;-69
2022/04/15 09:45:18;;;;;;;3.05;1.65;;;;;;;2.25;100.00;101240.00;4970418;28;20047;-69
2022/04/15 09:48:00;;;;;;;3.55;1.80;;;;;;;2.19;100.00;101243.00;4969656;28;20126;-69
2022/04/15 09:50:29;;;;;;;4.55;1.55;;;;;;;2.14;100.00;101243.47;4970144;28;20077;-69
2022/04/15 09:53:09;;;;;;;3.38;1.50;;;;;;;2.14;100.00;101244.34;4969380;28;20054;-69
2022/04/15 09:55:40;;;;;;;4.07;1.88;;;;;;;2.17;100.00;101249.66;4969405;28;20501;-69
2022/04/15 09:58:11;;;;;;;6.78;2.55;;;;;;;2.20;100.00;101248.97;4969557;28;20134;-68
2022/04/15 10:00:43;;;;;;;6.95;2.00;;;;;;;2.19;100.00;101254.88;4969792;28;20134;-69
2022/04/15 10:03:14;;;;;;;4.50;2.35;;;;;;;2.17;100.00;101259.88;4977378;28;20050;-68
2022/04/15 10:05:44;;;;;;;8.35;2.30;;;;;;;2.09;100.00;101256.78;4989756;28;20056;-70
2022/04/15 10:08:12;;;;;;;4.30;2.22;;;;;;;2.12;100.00;101265.44;4988511;28;20058;-69
2022/04/15 10:10:41;;;;;;;5.05;2.38;;;;;;;2.11;100.00;101267.09;4987671;28;20144;-68
2022/04/15 10:13:10;;;;;;;3.65;1.73;;;;;;;2.10;100.00;101258.53;4969085;28;20121;-69
2022/04/15 10:15:38;;;;;;;4.05;2.22;;;;;;;2.16;100.00;101264.88;4969428;28;20047;-69
2022/04/15 10:18:09;;;;;;;6.60;2.40;;;;;;;2.17;100.00;101270.06;4967789;28;20051;-69
2022/04/15 10:20:38;;;;;;;4.93;2.13;;;;;;;2.16;100.00;101270.88;4988098;28;20610;-69
2022/04/15 10:23:08;;;;;;;5.93;2.28;;;;;;;2.14;100.00;101269.88;4988201;28;20061;-69
2022/04/15 10:25:39;;;;;;;3.97;2.42;;;;;;;2.16;100.00;101270.00;4988302;28;20050;-69
2022/04/15 10:28:09;;;;;;;7.90;2.80;;;;;;;2.15;100.00;101271.63;4988115;28;20130;-69
2022/04/15 10:30:38;;;;;;;2.22;2.03;;;;;;;2.16;100.00;101273.41;4988171;28;20113;-69
2022/04/15 10:33:09;;;;;;;4.72;2.33;;;;;;;2.18;100.00;101274.44;4968857;28;20058;-70
2022/04/15 10:35:40;;;;;;;6.22;2.55;;;;;;;2.20;100.00;101277.06;4968751;28;20128;-70
2022/04/15 10:38:12;;;;;;;4.28;1.90;;;;;;;2.20;100.00;101277.97;4972127;28;20050;-69
2022/04/15 10:40:44;;;;;;;;;;;;;;;2.21;100.00;101282.28;4970194;28;20101;-69
2022/04/15 10:43:22;;;;;;;4.85;1.90;;;;;;;2.21;100.00;101281.41;4968734;28;19921;-69
2022/04/15 10:45:52;;;;;;;5.47;2.67;;;;;;;2.22;100.00;101278.97;4972011;28;20074;-69
2022/04/15 10:48:33;;;;;;;4.50;2.00;;;;;;;2.19;100.00;101270.19;4988216;28;20054;-69
2022/04/15 10:51:23;;;;;;;5.25;2.17;;;;;;;2.16;100.00;101278.53;4949881;29;20063;-69
2022/04/15 10:53:51;;;;;;;3.90;1.73;;;;;;;2.07;100.00;101288.09;4968635;28;20583;-69
2022/04/15 10:56:21;;;;;;;3.88;2.28;;;;;;;1.96;100.00;101273.66;4988259;28;20113;-69
2022/04/15 11:01:54;;;;;;;2.78;1.77;;;;;;;1.87;100.00;101290.06;4974518;28;20050;-69
2022/04/15 11:04:28;;;;;;;5.40;1.85;;;;;;;1.95;100.00;101287.19;4969171;28;20086;-69
2022/04/15 11:06:57;;;;;;;3.58;1.67;;;;;;;2.00;100.00;101288.41;4969849;28;20121;-69
2022/04/15 11:09:26;;;;;;;3.45;1.65;;;;;;;2.03;100.00;101288.63;4968349;28;20224;-69
2022/04/15 11:11:54;;;;;;;3.88;1.90;;;;;;;2.04;100.00;101293.84;4951826;28;20056;-69
2022/04/15 11:14:35;;;;;;;6.07;1.90;;;;;;;2.07;100.00;101299.16;4967738;28;20045;-69
2022/04/15 11:17:04;;;;;;;6.50;1.77;;;;;;;2.08;100.00;101290.75;4968348;28;20521;-69
2022/04/15 11:19:35;;;;;;;3.88;1.80;;;;;;;2.09;100.00;101296.75;4953868;28;20055;-69
2022/04/15 11:22:03;;;;;;;4.15;2.00;;;;;;;2.08;100.00;101297.50;4956830;28;20057;-69
2022/04/15 11:24:34;;;;;;;2.63;1.67;;;;;;;2.05;100.00;101299.84;4955646;28;20122;-69
2022/04/15 11:27:05;;;;;;;3.88;1.95;;;;;;;2.04;100.00;101298.97;4971842;28;20054;-69
2022/04/15 11:29:34;;;;;;;3.80;1.80;;;;;;;2.05;100.00;101297.28;4978627;28;20050;-70
2022/04/15 11:32:06;;;;;;;3.17;1.88;;;;;;;2.06;100.00;101299.06;4979454;28;20105;-70
2022/04/15 11:34:36;;;;;;;3.97;2.35;;;;;;;2.07;100.00;101299.16;4971530;28;20675;-69
2022/04/15 11:37:06;;;;;;;3.13;1.67;;;;;;;2.05;100.00;101295.63;4972443;28;20098;-70
2022/04/15 11:39:41;;;;;;;3.05;1.85;;;;;;;2.02;100.00;101295.41;4975587;28;20453;-69
2022/04/15 11:42:12;;;;;;;5.47;2.10;;;;;;;2.04;100.00;101293.84;4971814;28;20166;-70
2022/04/15 11:44:42;;;;;;;3.45;2.03;;;;;;;2.01;100.00;101295.28;4972184;28;20556;-70